Time;durP1;ratioP1;P1;durP2;ratioP2;P2;SDS_P1;SDS_P2;PMS_P1;PMS_P2;Temp;Humidity;BMP_temperature;BMP_pressure;BME280_temperature;BME280_humidity;BME280_pressure;Samples;Min_cycle;Max_cycle;Signal;HPM_P1;HPM_P2
2022/07/23 00:01:23;;;;;;;7.47;6.60;;;20.80;93.60;;;;;;5093882;28;20478;-46
2022/07/23 00:03:54;;;;;;;7.53;6.73;;;20.80;93.50;;;;;;5093104;28;20457;-46
2022/07/23 00:06:20;;;;;;;7.13;6.30;;;20.60;93.40;;;;;;5094032;28;20503;-46
2022/07/23 00:08:47;;;;;;;7.20;6.50;;;20.70;93.30;;;;;;5093719;28;20433;-47
2022/07/23 00:11:14;;;;;;;7.53;6.40;;;20.60;93.30;;;;;;5093625;28;20442;-49
2022/07/23 00:13:40;;;;;;;6.50;5.97;;;20.60;93.30;;;;;;5093527;28;20454;-47
2022/07/23 00:16:07;;;;;;;7.67;6.17;;;20.60;93.30;;;;;;5092457;28;20449;-47
2022/07/23 00:18:34;;;;;;;7.53;6.50;;;20.60;93.30;;;;;;5093251;28;20835;-48
2022/07/23 00:21:02;;;;;;;8.13;6.73;;;20.70;93.30;;;;;;5093310;28;20470;-47
2022/07/23 00:23:30;;;;;;;11.00;6.50;;;20.40;93.10;;;;;;5093435;28;20500;-47
2022/07/23 00:25:58;;;;;;;7.40;6.30;;;20.30;93.00;;;;;;5093580;28;20847;-48
2022/07/23 00:28:24;;;;;;;6.67;5.57;;;20.40;93.10;;;;;;5094685;28;20532;-48
2022/07/23 00:30:51;;;;;;;9.47;7.00;;;20.70;93.20;;;;;;5093975;28;20443;-46
2022/07/23 00:33:17;;;;;;;7.47;6.67;;;20.80;93.20;;;;;;5094509;28;20468;-47
2022/07/23 00:35:44;;;;;;;9.43;6.73;;;20.50;93.00;;;;;;5095239;28;20429;-48
2022/07/23 00:38:12;;;;;;;9.53;6.37;;;20.60;93.00;;;;;;5095380;28;20499;-46
2022/07/23 00:40:39;;;;;;;6.40;5.80;;;20.60;93.00;;;;;;5094604;28;20479;-47
2022/07/23 00:43:07;;;;;;;7.30;6.20;;;20.70;93.10;;;;;;5095224;28;20459;-47
2022/07/23 00:45:33;;;;;;;7.70;6.20;;;20.50;92.90;;;;;;5094083;28;20442;-46
2022/07/23 00:48:01;;;;;;;7.33;6.57;;;20.90;93.20;;;;;;5092644;28;20451;-46
2022/07/23 00:50:28;;;;;;;10.03;7.43;;;20.40;92.90;;;;;;5093297;28;20495;-47
2022/07/23 00:52:56;;;;;;;8.60;6.80;;;20.30;92.90;;;;;;5094793;28;20429;-48
2022/07/23 00:55:24;;;;;;;7.17;6.57;;;20.90;93.20;;;;;;5094718;28;20438;-48
2022/07/23 00:57:51;;;;;;;8.43;6.50;;;20.70;93.20;;;;;;5093766;28;20447;-45
2022/07/23 01:00:18;;;;;;;7.53;6.50;;;20.50;93.10;;;;;;5093006;28;20449;-46
2022/07/23 01:02:44;;;;;;;7.03;6.43;;;20.10;92.90;;;;;;5094343;28;20937;-47
2022/07/23 01:05:11;;;;;;;8.80;7.07;;;20.60;93.30;;;;;;5094597;28;20454;-47
2022/07/23 01:07:38;;;;;;;10.77;6.90;;;20.60;93.40;;;;;;5093203;28;20453;-47
2022/07/23 01:10:30;;;;;;;9.07;7.00;;;20.40;93.40;;;;;;5093743;28;20463;-46
2022/07/23 01:12:55;;;;;;;10.10;6.23;;;20.30;93.50;;;;;;5092623;28;20868;-46
2022/07/23 01:15:22;;;;;;;8.43;6.80;;;19.90;93.40;;;;;;5093768;28;20440;-47
2022/07/23 01:17:49;;;;;;;8.70;6.87;;;20.20;93.60;;;;;;5092513;28;20995;-47
2022/07/23 01:20:16;;;;;;;7.77;6.47;;;20.20;93.70;;;;;;5092310;28;20545;-47
2022/07/23 01:22:44;;;;;;;7.13;6.43;;;20.20;93.80;;;;;;5092920;28;20875;-46
2022/07/23 01:25:11;;;;;;;11.53;7.00;;;20.10;93.80;;;;;;5092781;28;20520;-46
2022/07/23 01:27:40;;;;;;;8.43;5.83;;;19.80;93.80;;;;;;5092914;28;20460;-47
2022/07/23 01:30:09;;;;;;;7.50;6.70;;;19.80;93.90;;;;;;5092421;28;20828;-48
2022/07/23 01:32:36;;;;;;;8.53;7.40;;;20.00;94.10;;;;;;5093913;28;20450;-45
2022/07/23 01:35:03;;;;;;;8.40;6.57;;;19.80;94.10;;;;;;5092518;28;20468;-46
2022/07/23 01:37:29;;;;;;;7.90;6.60;;;19.90;94.20;;;;;;5094223;28;20437;-46
2022/07/23 01:39:57;;;;;;;11.80;6.80;;;19.80;94.40;;;;;;5092567;28;20454;-47
2022/07/23 01:42:25;;;;;;;7.83;6.40;;;19.90;94.40;;;;;;5092585;28;20483;-46
2022/07/23 01:45:11;;;;;;;9.80;7.00;;;19.80;94.40;;;;;;5091069;28;20460;-47
2022/07/23 01:47:41;;;;;;;7.90;7.10;;;19.80;94.50;;;;;;5091091;28;20457;-46
2022/07/23 01:50:09;;;;;;;8.33;6.97;;;19.80;94.60;;;;;;5090886;28;20798;-48
2022/07/23 01:52:44;;;;;;;8.90;7.60;;;19.70;94.50;;;;;;5091018;28;20450;-48
2022/07/23 01:55:12;;;;;;;10.87;7.03;;;19.70;94.60;;;;;;5092082;28;20464;-46
2022/07/23 01:57:42;;;;;;;9.43;8.17;;;19.70;94.70;;;;;;5090892;28;20480;-48
2022/07/23 02:00:11;;;;;;;7.57;6.60;;;19.60;94.70;;;;;;5090341;28;20453;-47
2022/07/23 02:02:42;;;;;;;6.97;6.30;;;19.60;94.80;;;;;;5090848;28;20859;-48
2022/07/23 02:05:09;;;;;;;9.70;7.30;;;19.60;94.90;;;;;;5092111;28;20445;-47
2022/07/23 02:07:37;;;;;;;9.40;7.37;;;19.60;94.90;;;;;;5092185;28;20440;-48
2022/07/23 02:10:04;;;;;;;8.00;7.23;;;19.60;95.00;;;;;;5090256;28;20822;-47
2022/07/23 02:12:32;;;;;;;9.87;6.43;;;19.60;95.00;;;;;;5091249;28;20801;-48
2022/07/23 02:14:59;;;;;;;9.53;7.53;;;19.50;94.90;;;;;;5091274;28;20466;-49
2022/07/23 02:17:26;;;;;;;11.03;7.20;;;19.50;94.90;;;;;;5090975;28;20466;-47
2022/07/23 02:19:52;;;;;;;8.87;5.77;;;19.50;94.90;;;;;;5092071;28;20808;-48
2022/07/23 02:22:19;;;;;;;7.83;7.10;;;19.40;94.90;;;;;;5091432;28;20472;-47
2022/07/23 02:24:46;;;;;;;7.57;6.60;;;19.60;95.10;;;;;;5093549;28;20471;-46
2022/07/23 02:27:13;;;;;;;9.70;7.20;;;19.70;95.10;;;;;;5094573;28;20963;-46
2022/07/23 02:29:41;;;;;;;7.67;6.57;;;19.50;95.10;;;;;;5094209;28;20448;-46
2022/07/23 02:32:07;;;;;;;9.67;7.20;;;19.20;95.00;;;;;;5095706;28;20429;-47
2022/07/23 02:34:34;;;;;;;9.10;6.63;;;19.50;95.10;;;;;;5094697;28;21005;-47
2022/07/23 02:37:02;;;;;;;7.00;6.40;;;19.50;95.20;;;;;;5094456;28;20447;-47
2022/07/23 02:39:29;;;;;;;7.20;6.50;;;19.40;95.20;;;;;;5094050;28;20547;-46
2022/07/23 02:41:56;;;;;;;7.57;6.13;;;19.40;95.40;;;;;;5094433;28;20476;-47
2022/07/23 02:44:23;;;;;;;9.00;6.87;;;19.40;95.40;;;;;;5095828;28;20463;-47
2022/07/23 02:46:54;;;;;;;7.73;6.20;;;19.20;95.40;;;;;;5094434;28;20459;-46
2022/07/23 02:49:20;;;;;;;7.43;6.60;;;19.40;95.60;;;;;;5094048;28;20480;-47
2022/07/23 02:51:49;;;;;;;9.40;6.90;;;19.50;95.70;;;;;;5094203;28;20468;-48
2022/07/23 02:54:16;;;;;;;8.00;7.30;;;19.30;95.70;;;;;;5094682;28;20472;-47
2022/07/23 02:56:43;;;;;;;8.03;6.90;;;19.20;95.90;;;;;;5093956;28;20981;-47
2022/07/23 02:59:10;;;;;;;10.70;6.20;;;19.20;96.00;;;;;;5093686;28;20795;-46
2022/07/23 03:01:37;;;;;;;9.53;7.37;;;19.10;96.40;;;;;;5093981;28;20460;-47
2022/07/23 03:04:05;;;;;;;11.10;6.63;;;19.20;96.30;;;;;;5094158;28;20471;-49
2022/07/23 03:06:32;;;;;;;7.60;6.90;;;19.00;96.60;;;;;;5093766;28;20552;-49
2022/07/23 03:08:58;;;;;;;11.30;6.77;;;19.10;96.50;;;;;;5093470;28;20790;-47
2022/07/23 03:11:25;;;;;;;8.77;6.80;;;19.40;96.90;;;;;;5094059;28;20555;-47
2022/07/23 03:13:51;;;;;;;6.97;6.37;;;19.30;96.90;;;;;;5093688;28;20459;-46
2022/07/23 03:16:20;;;;;;;7.53;6.73;;;19.00;96.80;;;;;;5093765;28;20457;-48
2022/07/23 03:18:47;;;;;;;8.47;6.30;;;19.00;96.90;;;;;;5095040;28;20471;-47
2022/07/23 03:21:15;;;;;;;7.20;6.37;;;19.00;97.00;;;;;;5097427;28;20483;-47
2022/07/23 03:23:41;;;;;;;8.40;6.07;;;19.10;96.80;;;;;;5121869;22;21629;-47
2022/07/23 03:26:08;;;;;;;10.13;6.23;;;18.50;96.70;;;;;;5093255;28;20483;-47
2022/07/23 03:28:35;;;;;;;11.03;6.10;;;18.70;96.80;;;;;;5092696;28;20446;-47
2022/07/23 03:31:02;;;;;;;9.67;5.90;;;18.80;96.80;;;;;;5094021;28;20951;-47
2022/07/23 03:33:28;;;;;;;9.00;5.73;;;18.50;96.70;;;;;;5092620;28;20451;-46
2022/07/23 03:35:55;;;;;;;6.20;5.57;;;18.90;96.90;;;;;;5092485;28;20447;-47
2022/07/23 03:38:27;;;;;;;6.80;6.10;;;18.50;96.70;;;;;;5092258;28;20451;-48
2022/07/23 03:40:55;;;;;;;6.43;5.80;;;18.50;96.70;;;;;;5094117;28;20518;-47
2022/07/23 03:43:24;;;;;;;9.00;6.27;;;19.00;97.00;;;;;;5092693;28;20472;-46
2022/07/23 03:45:50;;;;;;;8.80;5.70;;;18.70;96.90;;;;;;5094009;28;20432;-47
2022/07/23 03:48:17;;;;;;;11.63;5.83;;;18.70;96.90;;;;;;5092615;28;20451;-47
2022/07/23 03:50:45;;;;;;;6.60;5.80;;;18.60;96.80;;;;;;5092488;28;20993;-47
2022/07/23 03:53:11;;;;;;;9.27;5.30;;;18.60;96.80;;;;;;5092668;28;20443;-47
2022/07/23 03:55:39;;;;;;;11.20;5.63;;;18.70;96.80;;;;;;5092373;28;20841;-47
2022/07/23 03:58:06;;;;;;;8.97;6.53;;;18.80;96.70;;;;;;5092642;28;20447;-47
2022/07/23 04:00:33;;;;;;;6.47;5.27;;;18.50;96.50;;;;;;5093117;28;20427;-47
2022/07/23 04:02:59;;;;;;;7.03;4.70;;;18.70;96.60;;;;;;5093557;28;20909;-48
2022/07/23 04:05:27;;;;;;;6.20;4.83;;;18.60;96.50;;;;;;5092328;28;20464;-47
2022/07/23 04:08:02;;;;;;;12.20;5.90;;;18.70;96.40;;;;;;5092406;28;20486;-47
2022/07/23 04:10:28;;;;;;;6.60;4.93;;;18.70;96.30;;;;;;5091897;28;20457;-47
2022/07/23 04:12:56;;;;;;;8.83;4.57;;;18.60;96.20;;;;;;5093454;28;20428;-47
2022/07/23 04:15:23;;;;;;;4.90;4.40;;;18.30;95.80;;;;;;5092078;28;20460;-47
2022/07/23 04:17:50;;;;;;;6.80;3.57;;;18.50;95.70;;;;;;5091946;28;20452;-47
2022/07/23 04:20:18;;;;;;;5.00;4.00;;;18.40;95.60;;;;;;5091745;28;20897;-47
2022/07/23 04:22:53;;;;;;;10.23;4.60;;;19.10;95.90;;;;;;5091933;28;20871;-47
2022/07/23 04:25:20;;;;;;;8.10;4.20;;;18.70;95.70;;;;;;5091798;28;20563;-47
2022/07/23 04:27:47;;;;;;;9.50;4.30;;;18.70;95.30;;;;;;5091667;28;21039;-47
2022/07/23 04:30:14;;;;;;;6.13;4.10;;;18.60;95.20;;;;;;5091497;28;20447;-47
2022/07/23 04:32:41;;;;;;;5.73;3.83;;;18.80;95.30;;;;;;5091793;28;20454;-46
2022/07/23 04:35:16;;;;;;;8.37;4.20;;;18.20;94.60;;;;;;5091838;28;20571;-47
2022/07/23 04:37:43;;;;;;;6.37;3.57;;;18.60;94.70;;;;;;5092143;28;20888;-47
2022/07/23 04:40:11;;;;;;;5.80;3.30;;;18.50;94.40;;;;;;5091065;28;20445;-47
2022/07/23 04:42:37;;;;;;;7.47;4.20;;;18.60;94.30;;;;;;5092734;28;20507;-47
2022/07/23 04:45:04;;;;;;;7.97;3.57;;;18.60;94.70;;;;;;5091384;28;20463;-47
2022/07/23 04:47:32;;;;;;;4.10;3.63;;;18.60;94.80;;;;;;5091346;28;20573;-47
2022/07/23 04:49:59;;;;;;;6.00;3.30;;;18.50;95.20;;;;;;5090646;28;20448;-47
2022/07/23 04:52:26;;;;;;;11.17;4.17;;;18.70;96.10;;;;;;5091368;28;20473;-47
2022/07/23 04:54:53;;;;;;;9.33;4.20;;;19.00;96.40;;;;;;5091199;28;21036;-47
2022/07/23 04:57:19;;;;;;;7.50;4.20;;;18.50;97.00;;;;;;5092588;28;20445;-47
2022/07/23 04:59:46;;;;;;;9.10;3.43;;;18.60;97.00;;;;;;5092320;28;20931;-47
2022/07/23 05:02:13;;;;;;;5.27;3.17;;;18.60;96.70;;;;;;5091147;28;21007;-47
2022/07/23 05:04:41;;;;;;;6.80;3.60;;;18.70;97.00;;;;;;5092467;28;20549;-47
2022/07/23 05:07:08;;;;;;;6.10;3.60;;;18.60;97.20;;;;;;5090909;28;20456;-47
2022/07/23 05:09:35;;;;;;;8.07;3.90;;;18.50;97.40;;;;;;5091020;28;20813;-47
2022/07/23 05:12:02;;;;;;;6.33;3.20;;;18.50;97.60;;;;;;5092225;28;20436;-46
2022/07/23 05:14:29;;;;;;;5.37;3.90;;;18.20;97.90;;;;;;5090940;28;20468;-47
2022/07/23 05:16:56;;;;;;;7.97;3.30;;;18.30;98.20;;;;;;5090937;28;20452;-47
2022/07/23 05:19:23;;;;;;;6.20;3.30;;;18.20;98.60;;;;;;5090567;28;20890;-47
2022/07/23 05:21:52;;;;;;;11.10;3.47;;;18.20;98.70;;;;;;5090819;28;20482;-47
2022/07/23 05:24:18;;;;;;;5.97;3.40;;;18.10;98.90;;;;;;5090529;28;20479;-47
2022/07/23 05:26:45;;;;;;;8.07;3.57;;;18.50;99.20;;;;;;5090677;28;20447;-47
2022/07/23 05:29:12;;;;;;;6.80;4.10;;;17.80;98.80;;;;;;5091777;28;20956;-47
2022/07/23 05:31:38;;;;;;;7.17;3.20;;;18.30;99.10;;;;;;5090696;28;20455;-47
2022/07/23 05:34:06;;;;;;;5.13;3.20;;;18.10;99.10;;;;;;5090650;28;20464;-47
2022/07/23 05:36:34;;;;;;;5.47;3.70;;;18.10;99.20;;;;;;5090497;28;20486;-47
2022/07/23 05:39:03;;;;;;;8.27;3.80;;;18.50;99.60;;;;;;5090189;28;20967;-48
2022/07/23 05:41:33;;;;;;;5.90;3.63;;;18.50;99.80;;;;;;5090526;28;20534;-47
2022/07/23 05:44:02;;;;;;;5.30;4.13;;;18.50;99.90;;;;;;5090735;28;20559;-47
2022/07/23 05:46:28;;;;;;;7.03;3.90;;;17.70;99.40;;;;;;5090594;28;20455;-47
2022/07/23 05:48:58;;;;;;;4.60;3.83;;;18.00;99.50;;;;;;5089969;28;20450;-47
2022/07/23 05:51:45;;;;;;;7.87;3.70;;;17.80;99.30;;;;;;5091865;28;20421;-47
2022/07/23 05:54:13;;;;;;;5.73;3.50;;;18.20;99.60;;;;;;5090278;28;20471;-47
2022/07/23 05:56:40;;;;;;;8.37;3.93;;;18.20;99.70;;;;;;5090620;28;20791;-47
2022/07/23 05:59:06;;;;;;;11.33;4.30;;;18.20;99.50;;;;;;5089992;28;20455;-47
2022/07/23 06:01:33;;;;;;;6.23;3.90;;;18.40;99.60;;;;;;5091676;28;20458;-47
2022/07/23 06:04:06;;;;;;;5.70;3.90;;;18.10;99.50;;;;;;5094520;28;20505;-47
2022/07/23 06:06:36;;;;;;;6.70;3.90;;;18.50;99.90;;;;;;5094559;28;20475;-48
2022/07/23 06:09:03;;;;;;;6.57;3.50;;;18.50;99.90;;;;;;5094427;28;20458;-47
2022/07/23 06:11:31;;;;;;;10.30;4.50;;;18.80;99.80;;;;;;5094561;28;20451;-47
2022/07/23 06:13:58;;;;;;;6.03;3.50;;;18.90;99.90;;;;;;5094198;28;20475;-47
2022/07/23 06:16:35;;;;;;;8.93;3.97;;;18.50;99.50;;;;;;5094315;28;20525;-47
2022/07/23 06:19:02;;;;;;;10.87;4.70;;;18.80;99.90;;;;;;5093917;28;20878;-47
2022/07/23 06:21:30;;;;;;;6.03;4.03;;;18.50;99.90;;;;;;5094497;28;20960;-47
2022/07/23 06:23:58;;;;;;;8.70;4.40;;;18.40;99.90;;;;;;5094136;28;20492;-47
2022/07/23 06:26:24;;;;;;;7.67;4.23;;;18.40;99.90;;;;;;5094199;28;20979;-47
2022/07/23 06:28:52;;;;;;;9.83;5.13;;;18.50;99.90;;;;;;5095043;28;20435;-47
2022/07/23 06:31:19;;;;;;;6.70;4.40;;;18.20;99.90;;;;;;5095377;28;20469;-47
2022/07/23 06:33:45;;;;;;;8.70;4.23;;;19.00;99.90;;;;;;5095167;28;20968;-46
2022/07/23 06:36:12;;;;;;;10.63;4.87;;;18.50;99.90;;;;;;5093986;28;20844;-46
2022/07/23 06:38:40;;;;;;;7.63;3.80;;;18.60;99.90;;;;;;5094824;28;20463;-47
2022/07/23 06:41:07;;;;;;;8.30;4.80;;;18.70;99.90;;;;;;5093692;28;20447;-47
2022/07/23 06:43:34;;;;;;;8.40;4.33;;;18.70;99.90;;;;;;5093756;28;20478;-47
2022/07/23 06:46:02;;;;;;;5.33;4.30;;;18.60;99.90;;;;;;5093842;28;20450;-47
2022/07/23 06:48:28;;;;;;;11.93;5.00;;;19.10;99.90;;;;;;5093254;28;20509;-47
2022/07/23 06:50:55;;;;;;;5.20;4.27;;;18.90;99.90;;;;;;5094848;28;20835;-47
2022/07/23 06:53:24;;;;;;;8.57;4.13;;;18.60;99.90;;;;;;5093478;28;20447;-47
2022/07/23 06:55:51;;;;;;;6.90;4.73;;;18.60;99.90;;;;;;5094764;28;21103;-47
2022/07/23 06:58:19;;;;;;;8.10;5.40;;;18.70;99.90;;;;;;5093450;28;20450;-48
2022/07/23 07:00:46;;;;;;;5.40;4.60;;;18.70;99.90;;;;;;5094318;28;20480;-47
2022/07/23 07:03:13;;;;;;;8.53;5.20;;;18.70;99.90;;;;;;5094524;28;20468;-48
2022/07/23 07:05:40;;;;;;;6.87;5.03;;;18.70;99.90;;;;;;5095017;28;20458;-47
2022/07/23 07:08:07;;;;;;;8.63;4.60;;;18.30;99.90;;;;;;5093227;28;20447;-47
2022/07/23 07:10:33;;;;;;;7.30;5.50;;;18.20;99.90;;;;;;5094242;28;20442;-47
2022/07/23 07:13:00;;;;;;;7.10;4.50;;;18.80;99.90;;;;;;5094014;28;20440;-47
2022/07/23 07:15:27;;;;;;;7.43;4.87;;;18.80;99.90;;;;;;5094392;28;20454;-47
2022/07/23 07:17:53;;;;;;;8.63;5.27;;;18.40;99.90;;;;;;5094277;28;20950;-47
2022/07/23 07:20:21;;;;;;;6.27;5.17;;;18.70;99.90;;;;;;5094033;28;20439;-48
2022/07/23 07:22:48;;;;;;;11.40;4.57;;;19.00;99.90;;;;;;5094345;28;20836;-47
2022/07/23 07:25:14;;;;;;;10.07;4.87;;;18.80;99.90;;;;;;5094360;28;20471;-47
2022/07/23 07:27:43;;;;;;;9.33;5.50;;;19.10;99.90;;;;;;5094152;28;20927;-47
2022/07/23 07:30:11;;;;;;;6.50;5.23;;;19.10;99.90;;;;;;5093836;28;20458;-47
2022/07/23 07:32:39;;;;;;;11.97;5.20;;;19.20;99.90;;;;;;5094105;28;20432;-47
2022/07/23 07:35:06;;;;;;;9.87;4.33;;;19.40;99.90;;;;;;5094206;28;20853;-46
2022/07/23 07:37:34;;;;;;;9.97;5.47;;;19.40;99.90;;;;;;5093871;28;20436;-46
2022/07/23 07:40:00;;;;;;;9.13;6.10;;;19.80;99.90;;;;;;5093659;28;20436;-46
2022/07/23 07:42:27;;;;;;;7.97;5.27;;;19.60;99.90;;;;;;5093718;28;20547;-46
2022/07/23 07:44:54;;;;;;;6.57;5.20;;;19.70;99.90;;;;;;5094014;28;20472;-46
2022/07/23 07:47:20;;;;;;;8.93;5.43;;;19.70;99.90;;;;;;5093765;28;20459;-46
2022/07/23 07:49:47;;;;;;;7.50;4.57;;;19.70;99.90;;;;;;5093486;28;20433;-47
2022/07/23 07:52:13;;;;;;;9.93;6.87;;;19.80;99.90;;;;;;5093628;28;20450;-46
2022/07/23 07:54:42;;;;;;;7.70;4.97;;;20.00;99.90;;;;;;5093573;28;20437;-47
2022/07/23 07:57:09;;;;;;;10.57;5.93;;;20.20;99.90;;;;;;5093175;28;20437;-47
2022/07/23 07:59:36;;;;;;;8.17;5.60;;;19.90;99.90;;;;;;5091719;28;20445;-46
2022/07/23 08:02:02;;;;;;;9.90;6.10;;;19.90;99.90;;;;;;5093594;28;20494;-47
2022/07/23 08:04:29;;;;;;;6.50;4.60;;;19.90;99.90;;;;;;5093267;28;20481;-46
2022/07/23 08:06:56;;;;;;;5.83;3.77;;;20.10;99.90;;;;;;5093457;28;20883;-46
2022/07/23 08:09:22;;;;;;;5.67;3.57;;;20.30;99.90;;;;;;5092872;28;20437;-47
2022/07/23 08:11:51;;;;;;;8.00;3.80;;;20.10;99.90;;;;;;5093135;28;20428;-46
2022/07/23 08:14:18;;;;;;;6.50;4.20;;;20.30;99.90;;;;;;5092863;28;20498;-46
2022/07/23 08:16:44;;;;;;;6.43;3.80;;;20.20;99.90;;;;;;5093066;28;20429;-46
2022/07/23 08:19:11;;;;;;;10.13;4.70;;;20.30;99.70;;;;;;5092679;28;20789;-46
2022/07/23 08:21:38;;;;;;;6.03;4.20;;;20.40;99.30;;;;;;5092935;28;20429;-47
2022/07/23 08:24:04;;;;;;;7.10;4.40;;;20.30;99.30;;;;;;5092072;28;20485;-47
2022/07/23 08:26:31;;;;;;;8.80;4.27;;;20.30;99.30;;;;;;5092624;28;20476;-46
2022/07/23 08:28:59;;;;;;;6.90;3.90;;;20.70;99.20;;;;;;5092478;28;20440;-48
2022/07/23 08:31:26;;;;;;;6.50;4.57;;;20.40;98.70;;;;;;5092791;28;20507;-48
2022/07/23 08:33:54;;;;;;;5.40;3.90;;;20.40;98.70;;;;;;5093136;28;20454;-46
2022/07/23 08:36:20;;;;;;;6.63;4.10;;;20.50;98.40;;;;;;5092765;28;20989;-48
2022/07/23 08:38:47;;;;;;;7.07;4.30;;;20.50;98.30;;;;;;5092456;28;20505;-48
2022/07/23 08:41:14;;;;;;;7.97;4.20;;;20.60;98.60;;;;;;5092705;28;20433;-48
2022/07/23 08:43:42;;;;;;;5.30;3.90;;;20.50;97.90;;;;;;5092586;28;22227;-48
2022/07/23 08:46:11;;;;;;;5.50;3.50;;;20.60;98.40;;;;;;5092259;28;20425;-48
2022/07/23 08:48:37;;;;;;;7.93;3.60;;;20.40;98.30;;;;;;5092115;28;20796;-48
2022/07/23 08:51:05;;;;;;;5.67;3.80;;;20.10;98.50;;;;;;5092428;28;20437;-48
2022/07/23 08:53:35;;;;;;;7.60;4.13;;;19.80;97.80;;;;;;5092590;28;20949;-48
2022/07/23 08:56:03;;;;;;;4.50;3.43;;;20.40;97.60;;;;;;5092407;28;20862;-48
2022/07/23 08:58:30;;;;;;;9.00;4.10;;;20.70;97.50;;;;;;5091510;28;20434;-48
2022/07/23 09:00:58;;;;;;;6.60;4.10;;;20.90;97.40;;;;;;5092378;28;20770;-48
2022/07/23 09:03:27;;;;;;;7.13;3.70;;;20.60;97.20;;;;;;5091841;28;20546;-48
2022/07/23 09:05:55;;;;;;;10.40;4.10;;;20.50;96.90;;;;;;5090415;28;20563;-48
2022/07/23 09:08:24;;;;;;;6.47;3.03;;;20.30;96.60;;;;;;5091797;28;20477;-48
2022/07/23 09:10:53;;;;;;;11.67;3.40;;;20.50;96.50;;;;;;5091582;28;20831;-48
2022/07/23 09:13:32;;;;;;;6.90;3.47;;;20.60;96.30;;;;;;5091462;28;20446;-49
2022/07/23 09:16:03;;;;;;;6.90;3.20;;;20.50;95.50;;;;;;5092139;28;20854;-48
2022/07/23 09:18:38;;;;;;;4.30;3.57;;;21.20;96.00;;;;;;5091719;28;20438;-48
2022/07/23 09:21:10;;;;;;;6.30;3.60;;;20.60;95.40;;;;;;5091943;28;20430;-48
2022/07/23 09:23:41;;;;;;;5.80;3.50;;;21.50;95.50;;;;;;5091412;28;20559;-48
2022/07/23 09:26:31;;;;;;;5.53;4.23;;;20.80;95.10;;;;;;5114948;22;20564;-51
2022/07/23 09:29:03;;;;;;;5.40;3.60;;;20.70;95.10;;;;;;5087977;28;20540;-49
2022/07/23 09:31:46;;;;;;;7.60;3.90;;;20.80;95.50;;;;;;5090906;28;20927;-50
2022/07/23 09:34:18;;;;;;;7.53;4.50;;;20.80;95.30;;;;;;5091570;28;20446;-51
2022/07/23 09:36:45;;;;;;;9.20;5.23;;;20.80;95.20;;;;;;5091013;28;20429;-50
2022/07/23 09:39:14;;;;;;;10.77;4.20;;;20.80;95.30;;;;;;5090732;28;20435;-51
2022/07/23 09:41:42;;;;;;;8.00;4.50;;;20.90;95.40;;;;;;5091014;28;20441;-50
2022/07/23 09:44:15;;;;;;;6.43;4.97;;;21.00;95.10;;;;;;5090902;28;20462;-51
2022/07/23 09:46:43;;;;;;;4.30;3.90;;;21.10;94.80;;;;;;5090921;28;20564;-50
2022/07/23 09:49:17;;;;;;;8.70;4.67;;;21.10;94.60;;;;;;5090418;28;20442;-50
2022/07/23 09:51:51;;;;;;;12.37;5.87;;;21.30;94.70;;;;;;5091129;28;20457;-51
2022/07/23 09:54:27;;;;;;;6.33;4.77;;;21.10;94.70;;;;;;5090759;28;20976;-51
2022/07/23 09:56:55;;;;;;;5.60;4.17;;;21.10;94.40;;;;;;5090814;28;20454;-51
2022/07/23 09:59:26;;;;;;;8.63;4.60;;;21.70;94.70;;;;;;5090109;28;20457;-51
2022/07/23 10:01:56;;;;;;;6.93;4.70;;;21.40;94.50;;;;;;5090734;28;20438;-50
2022/07/23 10:04:25;;;;;;;9.70;4.83;;;21.30;94.10;;;;;;5090406;28;20487;-51
2022/07/23 10:07:11;;;;;;;7.83;4.73;;;21.50;94.10;;;;;;5091007;28;20650;-50
2022/07/23 10:10:15;;;;;;;7.57;6.40;;;21.70;93.70;;;;;;5090155;28;20981;-51
2022/07/23 10:15:55;;;;;;;4.87;3.27;;;22.30;92.80;;;;;;5089065;28;20470;-50
2022/07/23 10:18:22;;;;;;;9.13;3.77;;;22.30;92.00;;;;;;5090824;28;20486;-50
2022/07/23 10:20:51;;;;;;;7.00;4.20;;;22.30;91.60;;;;;;5090274;28;20798;-50
2022/07/23 10:23:25;;;;;;;5.70;3.80;;;22.10;91.20;;;;;;5090499;28;20442;-50
2022/07/23 10:25:59;;;;;;;7.50;4.40;;;22.10;91.40;;;;;;5090726;28;20475;-50
2022/07/23 10:28:42;;;;;;;4.30;3.57;;;22.10;91.50;;;;;;5090218;28;20413;-50
2022/07/23 10:31:29;;;;;;;5.23;3.93;;;22.30;91.40;;;;;;5090814;28;20500;-51
2022/07/23 10:34:03;;;;;;;6.47;3.47;;;22.30;91.30;;;;;;5090633;28;20436;-49
2022/07/23 10:36:36;;;;;;;5.70;3.83;;;22.30;91.20;;;;;;5090437;28;20561;-50
2022/07/23 10:39:06;;;;;;;8.20;4.73;;;22.50;91.30;;;;;;5089639;28;20432;-51
2022/07/23 10:41:34;;;;;;;8.97;4.27;;;22.40;91.00;;;;;;5090723;28;20932;-51
2022/07/23 10:44:08;;;;;;;4.40;3.03;;;22.40;90.90;;;;;;5090068;28;20477;-50
2022/07/23 10:46:39;;;;;;;6.53;3.50;;;22.40;90.60;;;;;;5090450;28;20432;-50
2022/07/23 10:49:25;;;;;;;7.70;3.83;;;22.40;90.50;;;;;;5093845;28;20434;-50
2022/07/23 10:52:22;;;;;;;5.20;3.00;;;22.40;89.80;;;;;;5094486;28;20978;-50
2022/07/23 10:54:51;;;;;;;6.20;3.73;;;22.50;89.60;;;;;;5094644;28;20552;-52
2022/07/23 10:57:19;;;;;;;5.93;3.60;;;23.00;90.30;;;;;;5094070;28;20504;-50
2022/07/23 11:00:16;;;;;;;4.43;2.90;;;22.50;90.10;;;;;;5093856;28;20489;-50
2022/07/23 11:02:45;;;;;;;6.00;4.00;;;22.60;89.80;;;;;;5094018;28;20438;-50
2022/07/23 11:05:13;;;;;;;6.03;3.60;;;22.60;90.00;;;;;;5094046;28;21003;-50
2022/07/23 11:08:14;;;;;;;8.10;3.60;;;22.70;90.00;;;;;;5093914;28;20929;-50
2022/07/23 11:10:43;;;;;;;6.70;2.73;;;22.90;89.00;;;;;;5093745;28;20434;-50
2022/07/23 11:13:33;;;;;;;4.87;3.53;;;23.50;89.90;;;;;;5092515;28;20917;-52
2022/07/23 11:16:15;;;;;;;5.67;3.60;;;23.20;89.00;;;;;;5093729;28;20454;-51
2022/07/23 11:19:01;;;;;;;6.43;3.83;;;23.40;88.40;;;;;;5093256;28;20821;-51
2022/07/23 11:21:45;;;;;;;7.40;4.00;;;23.40;87.50;;;;;;5093823;28;20969;-49
2022/07/23 11:24:15;;;;;;;8.40;3.70;;;23.40;87.20;;;;;;5093843;28;20472;-50
2022/07/23 11:26:55;;;;;;;9.37;3.20;;;23.40;86.70;;;;;;5093679;28;20446;-51
2022/07/23 11:29:51;;;;;;;3.93;3.53;;;23.50;86.30;;;;;;5093493;28;20440;-51
2022/07/23 11:32:28;;;;;;;5.37;3.63;;;23.60;85.20;;;;;;5093376;28;20501;-51
2022/07/23 11:34:55;;;;;;;7.50;3.80;;;23.60;85.40;;;;;;5092797;28;20817;-50
2022/07/23 11:37:31;;;;;;;5.60;3.40;;;23.50;85.60;;;;;;5092792;28;20442;-51
2022/07/23 11:40:00;;;;;;;4.80;3.20;;;23.40;84.50;;;;;;5092963;28;20435;-51
2022/07/23 11:42:27;;;;;;;6.80;3.97;;;23.30;84.90;;;;;;5092621;28;20445;-49
2022/07/23 11:44:53;;;;;;;5.47;3.70;;;23.30;85.30;;;;;;5092682;28;20493;-50
2022/07/23 11:47:23;;;;;;;5.37;3.70;;;23.20;85.20;;;;;;5092446;28;20950;-51
2022/07/23 11:49:53;;;;;;;6.90;3.40;;;23.20;85.40;;;;;;5092346;28;20434;-50
2022/07/23 11:52:20;;;;;;;4.47;3.20;;;23.30;85.70;;;;;;5092778;28;21025;-51
2022/07/23 11:54:49;;;;;;;9.53;4.07;;;23.30;86.00;;;;;;5092578;28;20455;-50
2022/07/23 11:57:17;;;;;;;6.83;3.50;;;23.30;86.00;;;;;;5092710;28;20930;-50
2022/07/23 11:59:46;;;;;;;4.97;4.03;;;23.30;85.50;;;;;;5091034;28;20443;-50
2022/07/23 12:02:13;;;;;;;4.70;3.57;;;23.40;85.50;;;;;;5092443;28;20480;-51
2022/07/23 12:04:40;;;;;;;6.00;3.80;;;23.50;85.60;;;;;;5092225;28;20478;-50
2022/07/23 12:07:29;;;;;;;4.53;3.73;;;23.60;85.10;;;;;;5092368;28;20791;-50
2022/07/23 12:09:57;;;;;;;4.90;4.10;;;23.70;84.10;;;;;;5091783;28;20433;-51
2022/07/23 12:12:25;;;;;;;5.10;3.60;;;23.70;84.30;;;;;;5092373;28;20806;-50
2022/07/23 12:14:53;;;;;;;7.57;4.10;;;23.80;84.20;;;;;;5092508;28;20949;-50
2022/07/23 12:17:21;;;;;;;5.17;3.50;;;23.90;84.20;;;;;;5092308;28;20473;-50
2022/07/23 12:19:48;;;;;;;7.10;3.60;;;24.10;84.00;;;;;;5091743;28;20450;-50
2022/07/23 12:22:15;;;;;;;4.97;4.27;;;24.10;83.20;;;;;;5092092;28;20463;-49
2022/07/23 12:24:56;;;;;;;4.23;3.60;;;24.30;82.70;;;;;;5091969;28;20583;-50
2022/07/23 12:27:23;;;;;;;6.40;3.83;;;24.40;82.00;;;;;;5092094;28;20877;-50
2022/07/23 12:29:51;;;;;;;8.50;4.03;;;24.50;81.60;;;;;;5091817;28;20447;-50
2022/07/23 12:32:20;;;;;;;6.90;4.00;;;24.60;80.60;;;;;;5092150;28;20516;-50
2022/07/23 12:34:50;;;;;;;8.60;3.60;;;24.70;80.60;;;;;;5091816;28;20787;-53
2022/07/23 12:37:28;;;;;;;5.47;3.83;;;24.70;80.30;;;;;;5091941;28;20440;-51
2022/07/23 12:39:55;;;;;;;7.43;3.97;;;24.80;79.10;;;;;;5091443;28;20447;-51
2022/07/23 12:42:21;;;;;;;17.00;7.70;;;24.30;78.90;;;;;;5091847;28;20438;-50
2022/07/23 12:45:07;;;;;;;8.13;5.83;;;24.70;79.00;;;;;;5092062;28;20484;-51
2022/07/23 12:48:07;;;;;;;5.77;3.80;;;24.70;78.50;;;;;;5091570;28;20425;-51
2022/07/23 12:50:44;;;;;;;6.87;3.93;;;24.70;78.90;;;;;;5091786;28;20433;-52
2022/07/23 12:53:14;;;;;;;8.73;4.10;;;25.20;79.10;;;;;;5091394;28;20442;-51
2022/07/23 12:55:41;;;;;;;6.37;4.43;;;24.60;78.50;;;;;;5091557;28;20448;-51
2022/07/23 12:58:13;;;;;;;7.70;4.13;;;24.50;78.70;;;;;;5091904;28;20540;-51
2022/07/23 13:01:03;;;;;;;6.93;4.40;;;24.60;78.60;;;;;;5091289;28;20434;-51